الصفحة الرئيسية
METAR-TAF:

METAR-TAF

مطار :

San Juan de los Morros, فنزويلا

دائرة عرض: 09-55N, خط طول: 067-20W, ارتفاع: 429 متر

مراقبة الطقس الحالي

تاريخ ووقت الإصدار 29 دقيقة قبل الساعة 17:03UTC
ريح 4 عقدة من الغرب
درجة الحرارة 32°درجة مئوية
الرطوبة 36%
ضغط 1014 hPa

METAR: SVJM 041703Z AUTO 27004KT NCD 32/15 Q1014

زمن: 13:32 (17:32 UTC)


TAF: مفقودة

أرصاد الطقس والتوقعات من أكثر من 4000 مطار (تقارير الطقس للمطار METAR والتنبؤ بالطقس بالمطارTAF).

المحطات المتاحة هي النقط الصفراء والحمراء على الخريطة.

حرك المؤشر فوق النقطة لمعرفة اسم المحطة.

ثم انقر لمعرفة أرصاد وتوقعات الطقس.

لتغيير الخارطة: اضغط على الأزرار الخضراء مع رمز الصليب الأسود للتكبير. على الزر الأخضر مع شرطة للتصغير، أو على الأسهم الخضراء للخرائط المجاورة.


METAR-TAF: